createdAt,value
2023-02-21T00:02:00.995Z,14.13
2023-02-21T00:04:46.776Z,18.23
2023-02-21T00:07:32.025Z,26.05
2023-02-21T00:10:19.984Z,28.73
2023-02-21T00:13:05.588Z,20.52
2023-02-21T00:15:51.430Z,16.33
2023-02-21T00:18:37.063Z,19.07
2023-02-21T00:21:22.874Z,24.80
2023-02-21T00:24:08.693Z,22.27
2023-02-21T00:26:55.763Z,19.45
2023-02-21T00:29:41.793Z,13.75
2023-02-21T00:32:27.177Z,12.63
2023-02-21T00:35:12.945Z,9.38
2023-02-21T00:37:59.144Z,8.55
2023-02-21T00:40:44.904Z,8.20
2023-02-21T00:43:32.151Z,8.27
2023-02-21T00:46:18.087Z,9.73
2023-02-21T00:49:03.906Z,8.75
2023-02-21T00:51:49.674Z,8.60
2023-02-21T00:54:35.408Z,7.88
2023-02-21T00:57:20.976Z,8.80
2023-02-21T01:00:07.884Z,8.47
2023-02-21T01:02:53.393Z,8.15
2023-02-21T01:05:39.473Z,8.52
2023-02-21T01:08:25.510Z,8.13
2023-02-21T01:11:11.001Z,7.75
2023-02-21T01:13:56.942Z,8.07
2023-02-21T01:16:46.275Z,7.72
2023-02-21T01:19:31.884Z,7.85
2023-02-21T01:22:17.604Z,8.52
2023-02-21T01:25:03.291Z,8.38
2023-02-21T01:27:48.677Z,7.00
2023-02-21T01:30:36.502Z,6.18
2023-02-21T01:33:23.653Z,6.40
2023-02-21T01:36:09.379Z,6.72
2023-02-21T01:38:55.154Z,6.85
2023-02-21T01:41:40.603Z,6.80
2023-02-21T01:44:46.047Z,7.93
2023-02-21T01:47:31.862Z,7.55
2023-02-21T01:50:19.545Z,7.63
2023-02-21T01:53:06.094Z,8.43
2023-02-21T01:55:51.952Z,7.87
2023-02-21T01:58:40.101Z,9.70
2023-02-21T02:01:26.213Z,8.57
2023-02-21T02:04:12.342Z,8.75
2023-02-21T02:06:59.347Z,8.35
2023-02-21T02:09:44.965Z,8.33
2023-02-21T02:12:24.659Z,8.50
2023-02-21T02:15:01.146Z,8.68
2023-02-21T02:17:36.551Z,7.78
2023-02-21T02:20:17.389Z,10.10
2023-02-21T02:23:08.116Z,9.37
2023-02-21T02:25:46.682Z,10.57
2023-02-21T02:28:25.966Z,8.10
2023-02-21T02:31:15.217Z,8.20
2023-02-21T02:33:56.130Z,8.38
2023-02-21T02:36:27.438Z,8.97
2023-02-21T02:38:57.438Z,8.80
2023-02-21T02:41:29.163Z,9.10
2023-02-21T02:43:59.204Z,9.23
2023-02-21T02:46:28.239Z,9.35
2023-02-21T02:48:58.415Z,9.10
2023-02-21T02:51:27.325Z,9.23
2023-02-21T02:53:54.358Z,9.88
2023-02-21T02:56:23.815Z,9.20
2023-02-21T02:58:52.487Z,8.52
2023-02-21T03:01:28.486Z,8.07
2023-02-21T03:04:03.977Z,8.55
2023-02-21T03:06:36.692Z,8.90
2023-02-21T03:09:08.727Z,8.48
2023-02-21T03:11:37.370Z,8.52
2023-02-21T03:14:06.986Z,8.60
2023-02-21T03:16:35.492Z,8.93
2023-02-21T03:19:04.655Z,8.43
2023-02-21T03:21:33.048Z,8.52
2023-02-21T03:24:02.696Z,8.48
2023-02-21T03:26:32.100Z,8.67
2023-02-21T03:28:59.372Z,8.98
2023-02-21T03:31:28.896Z,9.15
2023-02-21T03:33:56.163Z,7.65
2023-02-21T03:36:23.297Z,8.23
2023-02-21T03:38:50.391Z,8.90
2023-02-21T03:41:19.394Z,8.32
2023-02-21T03:43:46.510Z,8.27
2023-02-21T03:46:14.064Z,8.50
2023-02-21T03:48:41.141Z,7.75
2023-02-21T03:51:08.126Z,7.97
2023-02-21T03:53:35.166Z,9.00
2023-02-21T03:56:02.096Z,8.80
2023-02-21T03:58:30.375Z,7.90
2023-02-21T04:00:58.000Z,8.63
2023-02-21T04:03:25.358Z,9.37
2023-02-21T04:05:52.468Z,8.90
2023-02-21T04:08:19.527Z,8.63
2023-02-21T04:10:52.933Z,8.23
2023-02-21T04:13:20.274Z,8.57
2023-02-21T04:15:48.816Z,8.40
2023-02-21T04:18:15.845Z,8.73
2023-02-21T04:20:42.841Z,8.05
2023-02-21T04:23:09.866Z,8.68
2023-02-21T04:25:36.825Z,8.95
2023-02-21T04:28:03.806Z,8.93
2023-02-21T04:30:31.390Z,9.38
2023-02-21T04:32:59.723Z,9.50
2023-02-21T04:35:26.782Z,8.65
2023-02-21T04:37:53.759Z,8.85
2023-02-21T04:40:21.155Z,8.43
2023-02-21T04:42:48.325Z,9.07
2023-02-21T04:45:15.320Z,9.05
2023-02-21T04:47:42.371Z,9.20
2023-02-21T04:50:11.416Z,8.77
2023-02-21T04:52:41.096Z,8.48
2023-02-21T04:55:08.205Z,8.88
2023-02-21T04:57:35.229Z,9.32
2023-02-21T05:00:02.195Z,9.32
2023-02-21T05:02:29.220Z,8.48
2023-02-21T05:04:56.267Z,8.47
2023-02-21T05:07:24.766Z,8.23
2023-02-21T05:09:53.052Z,9.05
2023-02-21T05:12:20.322Z,7.90
2023-02-21T05:14:47.231Z,8.52
2023-02-21T05:17:14.209Z,9.80
2023-02-21T05:19:42.807Z,10.90
2023-02-21T05:22:10.916Z,11.27
2023-02-21T05:24:42.781Z,10.85
2023-02-21T05:27:11.558Z,10.88
2023-02-21T05:29:39.301Z,9.90
2023-02-21T05:32:06.687Z,9.63
2023-02-21T05:34:33.824Z,11.52
2023-02-21T05:37:00.778Z,11.00
2023-02-21T05:39:27.769Z,10.75
2023-02-21T05:41:58.922Z,9.87
2023-02-21T05:44:25.895Z,10.82
2023-02-21T05:46:52.862Z,11.50
2023-02-21T05:49:20.194Z,10.43
2023-02-21T05:51:47.414Z,9.88
2023-02-21T05:54:16.101Z,10.27
2023-02-21T05:56:43.845Z,9.50
2023-02-21T05:59:12.895Z,9.85
2023-02-21T06:01:40.093Z,8.90
2023-02-21T06:04:07.856Z,10.80
2023-02-21T06:06:35.064Z,11.25
2023-02-21T06:09:02.372Z,11.05
2023-02-21T06:11:32.019Z,13.70
2023-02-21T06:13:59.690Z,13.50
2023-02-21T06:16:29.160Z,11.70
2023-02-21T06:18:57.342Z,11.83
2023-02-21T06:21:24.307Z,12.52
2023-02-21T06:23:51.526Z,12.27
2023-02-21T06:26:19.282Z,12.55
2023-02-21T06:28:49.087Z,12.55
2023-02-21T06:31:17.443Z,12.50
2023-02-21T06:33:46.228Z,12.27
2023-02-21T06:36:14.421Z,13.10
2023-02-21T06:38:44.101Z,14.18
2023-02-21T06:41:11.257Z,17.17
2023-02-21T06:43:38.364Z,17.60
2023-02-21T06:46:14.561Z,19.40
2023-02-21T06:48:42.152Z,19.83
2023-02-21T06:51:11.870Z,19.13
2023-02-21T06:53:39.288Z,20.05
2023-02-21T06:56:09.514Z,17.53
2023-02-21T06:58:36.624Z,19.55
2023-02-21T07:01:09.023Z,18.88
2023-02-21T07:03:39.279Z,18.13
2023-02-21T07:06:06.534Z,15.95
2023-02-21T07:08:34.976Z,15.47
2023-02-21T07:11:02.083Z,15.07
2023-02-21T07:13:29.160Z,41.92
2023-02-21T07:15:56.200Z,51.70
2023-02-21T07:18:23.699Z,47.70
2023-02-21T07:20:50.909Z,49.63
2023-02-21T07:23:17.962Z,50.70
2023-02-21T07:25:46.390Z,50.25
2023-02-21T07:28:13.415Z,49.00
2023-02-21T07:30:40.979Z,44.40
2023-02-21T07:33:08.477Z,35.43
2023-02-21T07:35:35.862Z,28.05
2023-02-21T07:38:02.856Z,24.70
2023-02-21T07:40:30.275Z,22.23
2023-02-21T07:42:58.857Z,21.83
2023-02-21T07:45:26.079Z,26.27
2023-02-21T07:47:53.732Z,22.13
2023-02-21T07:50:26.276Z,20.80
2023-02-21T07:52:53.245Z,15.20
2023-02-21T07:55:24.671Z,19.40
2023-02-21T07:57:55.252Z,14.70
2023-02-21T08:00:44.126Z,15.80
2023-02-21T08:03:13.042Z,13.60
2023-02-21T08:05:40.207Z,15.60
2023-02-21T08:08:08.016Z,14.23
2023-02-21T08:10:35.385Z,13.80
2023-02-21T08:13:02.580Z,17.63
2023-02-21T08:15:34.245Z,21.88
2023-02-21T08:18:29.369Z,22.10
2023-02-21T08:20:59.502Z,25.48
2023-02-21T08:23:26.535Z,24.73
2023-02-21T08:25:53.570Z,25.20
2023-02-21T08:28:20.502Z,24.38
2023-02-21T08:30:51.474Z,21.55
2023-02-21T08:33:18.677Z,16.92
2023-02-21T08:36:06.838Z,17.13
2023-02-21T08:38:40.022Z,16.15
2023-02-21T08:41:07.998Z,15.68
2023-02-21T08:43:35.018Z,16.30
2023-02-21T08:46:03.460Z,16.58
2023-02-21T08:48:33.347Z,16.57
2023-02-21T08:51:03.249Z,17.92
2023-02-21T08:53:30.583Z,15.63
2023-02-21T08:55:57.785Z,16.15
2023-02-21T08:58:24.837Z,14.32
2023-02-21T09:00:52.197Z,12.43
2023-02-21T09:03:20.930Z,11.00
2023-02-21T09:05:49.785Z,11.38
2023-02-21T09:08:17.069Z,11.40
2023-02-21T09:10:47.812Z,11.43
2023-02-21T09:13:15.330Z,10.93
2023-02-21T09:15:42.529Z,11.13
2023-02-21T09:18:12.083Z,10.60
2023-02-21T09:20:42.422Z,12.32
2023-02-21T09:23:09.924Z,11.05
2023-02-21T09:25:37.552Z,12.33
2023-02-21T09:28:04.942Z,11.80
2023-02-21T09:30:32.206Z,12.45
2023-02-21T09:32:59.309Z,11.05
2023-02-21T09:35:26.261Z,11.25
2023-02-21T09:37:54.789Z,11.80
2023-02-21T09:40:27.772Z,11.23
2023-02-21T09:42:56.762Z,10.98
2023-02-21T09:45:25.119Z,12.05
2023-02-21T09:47:54.405Z,12.30
2023-02-21T09:50:30.508Z,12.57
2023-02-21T09:52:59.336Z,11.13
2023-02-21T09:55:30.740Z,11.05
2023-02-21T09:57:58.034Z,11.18
2023-02-21T10:00:28.368Z,12.32
2023-02-21T10:03:22.673Z,12.20
2023-02-21T10:05:53.509Z,12.68
2023-02-21T10:08:26.984Z,11.85
2023-02-21T10:10:56.436Z,12.15
2023-02-21T10:13:32.197Z,13.43
2023-02-21T10:16:05.275Z,16.00
2023-02-21T10:18:38.900Z,13.68
2023-02-21T10:21:11.818Z,12.65
2023-02-21T10:23:42.122Z,11.85
2023-02-21T10:26:10.725Z,9.75
2023-02-21T10:28:38.062Z,11.00
2023-02-21T10:31:08.027Z,10.65
2023-02-21T10:33:37.230Z,11.10
2023-02-21T10:36:10.006Z,9.98
2023-02-21T10:38:40.084Z,10.32
2023-02-21T10:41:08.941Z,9.03
2023-02-21T10:43:37.095Z,8.93
2023-02-21T10:46:11.695Z,8.25
2023-02-21T10:48:39.545Z,7.95
2023-02-21T10:51:08.054Z,7.43
2023-02-21T10:53:36.912Z,7.23
2023-02-21T10:56:23.384Z,7.40
2023-02-21T10:58:51.896Z,7.85
2023-02-21T11:01:22.085Z,7.68
2023-02-21T11:03:50.514Z,7.40
2023-02-21T11:06:28.351Z,6.93
2023-02-21T11:08:55.535Z,9.75
2023-02-21T11:11:36.772Z,9.85
2023-02-21T11:14:22.721Z,5.70
2023-02-21T11:17:14.368Z,4.90
2023-02-21T11:19:49.481Z,4.97
2023-02-21T11:22:17.680Z,5.28
2023-02-21T11:24:46.060Z,6.25
2023-02-21T11:27:14.492Z,4.82
2023-02-21T11:29:42.940Z,4.63
2023-02-21T11:32:12.384Z,4.53
2023-02-21T11:34:45.190Z,4.80
2023-02-21T11:37:12.267Z,4.60
2023-02-21T11:39:41.532Z,5.15
2023-02-21T11:45:19.596Z,11.40
2023-02-21T11:47:48.781Z,4.80
2023-02-21T11:50:21.861Z,5.10
2023-02-21T11:52:52.384Z,4.32
2023-02-21T11:55:21.903Z,3.78
2023-02-21T11:57:53.609Z,4.40
2023-02-21T12:00:25.559Z,4.57
2023-02-21T12:02:59.997Z,4.40
2023-02-21T12:05:32.688Z,5.07
2023-02-21T12:08:11.100Z,5.28
2023-02-21T12:10:43.372Z,4.60
2023-02-21T12:13:38.293Z,4.78
2023-02-21T12:16:10.923Z,4.97
2023-02-21T12:18:44.877Z,5.78
2023-02-21T12:21:27.148Z,5.15
2023-02-21T12:23:59.420Z,4.93
2023-02-21T12:26:44.896Z,5.85
2023-02-21T12:29:21.586Z,5.47
2023-02-21T12:31:59.783Z,5.10
2023-02-21T12:34:35.460Z,5.75
2023-02-21T12:37:15.128Z,5.43
2023-02-21T12:39:51.182Z,5.53
2023-02-21T12:42:29.252Z,5.30
2023-02-21T12:45:01.608Z,6.22
2023-02-21T12:47:32.680Z,6.32
2023-02-21T12:50:01.709Z,5.30
2023-02-21T12:52:31.285Z,5.95
2023-02-21T12:55:01.694Z,5.07
2023-02-21T12:57:33.154Z,5.55
2023-02-21T13:00:16.859Z,5.20
2023-02-21T13:02:52.502Z,5.50
2023-02-21T13:05:21.583Z,10.88
2023-02-21T13:07:54.511Z,5.43
2023-02-21T13:10:25.070Z,5.55
2023-02-21T13:12:55.760Z,4.15
2023-02-21T13:15:25.079Z,3.35
2023-02-21T13:17:57.079Z,2.80
2023-02-21T13:20:26.102Z,2.60
2023-02-21T13:23:14.154Z,2.60
2023-02-21T13:25:50.310Z,2.42
2023-02-21T13:28:18.509Z,3.67
2023-02-21T13:30:47.129Z,1.98
2023-02-21T13:33:25.163Z,1.60
2023-02-21T13:35:52.373Z,2.25
2023-02-21T13:38:20.285Z,2.65
2023-02-21T13:40:52.566Z,1.58
2023-02-21T13:43:23.349Z,3.28
2023-02-21T13:45:52.897Z,1.80
2023-02-21T13:48:26.019Z,1.60
2023-02-21T13:50:53.870Z,2.03
2023-02-21T13:53:22.106Z,2.30
2023-02-21T13:56:07.656Z,1.70
2023-02-21T13:58:35.956Z,1.40
2023-02-21T14:01:18.133Z,1.13
2023-02-21T14:03:46.929Z,1.90
2023-02-21T14:06:24.258Z,1.55
2023-02-21T14:08:51.583Z,1.35
2023-02-21T14:11:21.594Z,1.40
2023-02-21T14:13:49.737Z,1.67
2023-02-21T14:16:19.344Z,1.27
2023-02-21T14:18:50.076Z,1.40
2023-02-21T14:21:22.299Z,1.15
2023-02-21T14:23:50.587Z,1.23
2023-02-21T14:26:38.908Z,1.83
2023-02-21T14:29:21.124Z,1.20
2023-02-21T14:31:56.571Z,1.20
2023-02-21T14:34:27.371Z,0.80
2023-02-21T14:36:57.526Z,1.40
2023-02-21T14:39:30.995Z,3.20
2023-02-21T14:42:05.807Z,2.17
2023-02-21T14:44:41.803Z,1.50
2023-02-21T14:47:35.693Z,1.45
2023-02-21T14:50:13.021Z,1.43
2023-02-21T14:52:55.496Z,1.23
2023-02-21T14:55:28.038Z,1.80
2023-02-21T14:58:09.981Z,0.95
2023-02-21T15:00:42.750Z,2.70
2023-02-21T15:03:12.950Z,0.70
2023-02-21T15:05:45.076Z,1.63
2023-02-21T15:08:15.175Z,1.30
2023-02-21T15:10:43.268Z,3.10
2023-02-21T15:13:20.621Z,1.10
2023-02-21T15:15:47.786Z,0.80
2023-02-21T15:18:23.927Z,0.82
2023-02-21T15:21:04.372Z,0.60
2023-02-21T15:23:31.743Z,0.95
2023-02-21T15:26:02.828Z,0.70
2023-02-21T15:28:30.778Z,0.97
2023-02-21T15:31:00.513Z,0.60
2023-02-21T15:33:30.266Z,1.30
2023-02-21T15:35:58.562Z,0.80
2023-02-21T15:38:30.221Z,1.00
2023-02-21T15:40:59.415Z,1.00
2023-02-21T15:43:31.898Z,0.80
2023-02-21T15:46:00.912Z,1.52
2023-02-21T15:48:28.354Z,2.00
2023-02-21T15:50:59.617Z,0.95
2023-02-21T15:53:27.975Z,1.77
2023-02-21T15:55:55.046Z,1.13
2023-02-21T15:58:23.983Z,1.00
2023-02-21T16:01:07.319Z,1.00
2023-02-21T16:03:36.111Z,1.15
2023-02-21T16:06:14.681Z,0.90
2023-02-21T16:08:52.824Z,1.10
2023-02-21T16:11:19.948Z,1.00
2023-02-21T16:13:47.069Z,1.52
2023-02-21T16:16:14.164Z,1.40
2023-02-21T16:18:41.410Z,1.60
2023-02-21T16:21:20.189Z,1.33
2023-02-21T16:23:47.290Z,2.20
2023-02-21T16:26:27.303Z,4.50
2023-02-21T16:28:55.980Z,4.22
2023-02-21T16:31:27.460Z,7.10
2023-02-21T16:33:54.690Z,7.88
2023-02-21T16:36:24.977Z,8.65
2023-02-21T16:38:52.211Z,9.23
2023-02-21T16:41:19.687Z,8.93
2023-02-21T16:43:48.320Z,7.60
2023-02-21T16:46:16.457Z,7.15
2023-02-21T16:48:43.775Z,8.02
2023-02-21T16:51:14.339Z,7.15
2023-02-21T16:53:41.976Z,9.10
2023-02-21T16:56:11.626Z,8.70
2023-02-21T16:58:40.295Z,7.30
2023-02-21T17:01:12.481Z,6.68
2023-02-21T17:03:40.967Z,6.57
2023-02-21T17:06:08.593Z,7.88
2023-02-21T17:08:35.851Z,8.30
2023-02-21T17:11:02.894Z,9.27
2023-02-21T17:13:30.064Z,11.30
2023-02-21T17:16:00.123Z,13.70
2023-02-21T17:18:29.846Z,13.10
2023-02-21T17:20:57.181Z,14.50
2023-02-21T17:23:28.657Z,15.32
2023-02-21T17:25:55.712Z,16.50
2023-02-21T17:28:22.762Z,17.80
2023-02-21T17:30:50.318Z,18.88
2023-02-21T17:33:17.790Z,19.00
2023-02-21T17:35:46.252Z,21.80
2023-02-21T17:38:13.683Z,29.92
2023-02-21T17:40:41.348Z,23.60
2023-02-21T17:43:09.148Z,25.02
2023-02-21T17:45:36.643Z,26.57
2023-02-21T17:48:05.639Z,27.08
2023-02-21T17:50:33.835Z,27.00
2023-02-21T17:53:02.660Z,26.30
2023-02-21T17:55:30.350Z,27.27
2023-02-21T17:57:57.911Z,25.80
2023-02-21T18:00:28.036Z,28.50
2023-02-21T18:02:55.571Z,30.33
2023-02-21T18:05:23.058Z,27.10
2023-02-21T18:07:51.143Z,25.55
2023-02-21T18:10:20.503Z,23.77
2023-02-21T18:12:50.831Z,23.13
2023-02-21T18:15:19.919Z,27.17
2023-02-21T18:17:47.226Z,25.98
2023-02-21T18:20:17.906Z,24.08
2023-02-21T18:22:46.561Z,26.17
2023-02-21T18:25:15.299Z,24.05
2023-02-21T18:27:44.037Z,22.70
2023-02-21T18:30:11.746Z,23.70
2023-02-21T18:32:43.179Z,21.17
2023-02-21T18:35:10.531Z,21.47
2023-02-21T18:37:38.214Z,21.02
2023-02-21T18:40:06.876Z,19.42
2023-02-21T18:42:34.430Z,16.65
2023-02-21T18:45:03.017Z,15.35
2023-02-21T18:47:32.268Z,14.87
2023-02-21T18:49:59.652Z,15.63
2023-02-21T18:52:27.351Z,15.57
2023-02-21T18:54:55.822Z,15.50
2023-02-21T18:57:23.375Z,14.70
2023-02-21T18:59:51.557Z,14.20
2023-02-21T19:02:20.208Z,14.07
2023-02-21T19:04:47.505Z,13.23
2023-02-21T19:07:17.014Z,11.85
2023-02-21T19:09:45.693Z,10.32
2023-02-21T19:12:12.872Z,10.10
2023-02-21T19:14:40.368Z,8.35
2023-02-21T19:17:08.653Z,9.80
2023-02-21T19:19:37.736Z,12.20
2023-02-21T19:22:05.812Z,12.35
2023-02-21T19:24:33.150Z,14.33
2023-02-21T19:27:00.535Z,15.15
2023-02-21T19:29:27.564Z,15.10
2023-02-21T19:31:55.104Z,12.10
2023-02-21T19:34:22.106Z,12.88
2023-02-21T19:36:51.933Z,14.87
2023-02-21T19:39:19.071Z,11.98
2023-02-21T19:41:46.895Z,10.25
2023-02-21T19:44:14.635Z,9.27
2023-02-21T19:46:42.188Z,9.65
2023-02-21T19:49:17.680Z,9.27
2023-02-21T19:51:46.007Z,9.43
2023-02-21T19:54:16.486Z,9.20
2023-02-21T19:56:43.896Z,8.82
2023-02-21T19:59:12.235Z,10.07
2023-02-21T20:01:39.745Z,12.13
2023-02-21T20:04:07.343Z,10.02
2023-02-21T20:06:36.419Z,7.38
2023-02-21T20:09:04.438Z,8.60
2023-02-21T20:11:33.363Z,8.68
2023-02-21T20:14:00.617Z,8.97
2023-02-21T20:16:29.551Z,10.70
2023-02-21T20:18:57.685Z,9.30
2023-02-21T20:21:27.097Z,8.80
2023-02-21T20:23:55.113Z,8.68
2023-02-21T20:26:23.421Z,8.60
2023-02-21T20:28:52.576Z,8.60
2023-02-21T20:31:21.112Z,8.38
2023-02-21T20:33:49.124Z,8.60
2023-02-21T20:36:16.317Z,7.55
2023-02-21T20:38:44.059Z,7.47
2023-02-21T20:41:14.244Z,6.85
2023-02-21T20:43:41.461Z,7.28
2023-02-21T20:46:11.878Z,7.93
2023-02-21T20:48:39.398Z,7.20
2023-02-21T20:51:07.142Z,7.00
2023-02-21T20:53:36.775Z,6.07
2023-02-21T20:56:05.251Z,5.57
2023-02-21T20:58:32.661Z,5.47
2023-02-21T21:01:00.128Z,5.22
2023-02-21T21:03:29.658Z,5.10
2023-02-21T21:05:57.030Z,5.63
2023-02-21T21:08:24.304Z,7.30
2023-02-21T21:10:51.613Z,9.18
2023-02-21T21:13:19.000Z,9.45
2023-02-21T21:15:46.295Z,9.47
2023-02-21T21:18:13.708Z,9.32
2023-02-21T21:20:42.422Z,11.38
2023-02-21T21:23:09.550Z,12.10
2023-02-21T21:25:36.996Z,11.38
2023-02-21T21:28:04.770Z,11.90
2023-02-21T21:30:33.268Z,12.25
2023-02-21T21:33:01.060Z,11.88
2023-02-21T21:35:30.170Z,11.18
2023-02-21T21:37:58.890Z,10.70
2023-02-21T21:40:27.179Z,11.00
2023-02-21T21:42:54.472Z,9.95
2023-02-21T21:45:25.176Z,9.30
2023-02-21T21:47:53.376Z,9.00
2023-02-21T21:50:21.418Z,8.80
2023-02-21T21:52:52.143Z,8.57
2023-02-21T21:55:21.663Z,7.45
2023-02-21T21:57:53.576Z,9.05
2023-02-21T22:00:22.251Z,8.88
2023-02-21T22:02:50.448Z,9.13
2023-02-21T22:05:18.086Z,8.23
2023-02-21T22:07:45.079Z,8.95
2023-02-21T22:10:12.777Z,8.07
2023-02-21T22:12:46.141Z,7.78
2023-02-21T22:15:13.769Z,7.95
2023-02-21T22:17:40.862Z,8.53
2023-02-21T22:20:17.335Z,7.25
2023-02-21T22:22:46.330Z,7.82
2023-02-21T22:25:13.507Z,7.75
2023-02-21T22:27:41.916Z,7.40
2023-02-21T22:30:10.664Z,6.87
2023-02-21T22:32:42.591Z,6.35
2023-02-21T22:35:18.287Z,6.97
2023-02-21T22:37:47.410Z,6.32
2023-02-21T22:40:18.057Z,6.53
2023-02-21T22:42:46.892Z,7.13
2023-02-21T22:45:13.996Z,6.05
2023-02-21T22:47:41.027Z,6.13
2023-02-21T22:50:09.037Z,5.95
2023-02-21T22:52:36.109Z,5.88
2023-02-21T22:55:03.541Z,5.77
2023-02-21T22:57:30.537Z,5.72
2023-02-21T23:00:01.606Z,5.85
2023-02-21T23:02:28.948Z,5.68
2023-02-21T23:04:58.290Z,5.60
2023-02-21T23:07:25.297Z,6.00
2023-02-21T23:09:52.716Z,5.80
2023-02-21T23:12:19.855Z,6.10
2023-02-21T23:14:48.226Z,5.30
2023-02-21T23:17:16.906Z,5.63
2023-02-21T23:19:44.147Z,5.00
2023-02-21T23:22:11.362Z,5.10
2023-02-21T23:24:38.450Z,5.00
2023-02-21T23:27:08.910Z,5.20
2023-02-21T23:29:36.085Z,4.78
2023-02-21T23:32:10.055Z,4.90
2023-02-21T23:34:41.540Z,5.55
2023-02-21T23:37:09.311Z,6.13
2023-02-21T23:39:36.702Z,5.75
2023-02-21T23:42:03.866Z,5.40
2023-02-21T23:44:36.126Z,5.70
2023-02-21T23:47:06.060Z,5.20
2023-02-21T23:49:33.431Z,5.28
2023-02-21T23:52:02.048Z,4.88
2023-02-21T23:54:29.075Z,5.22
2023-02-21T23:57:00.709Z,6.20
2023-02-21T23:59:27.983Z,6.55
